sensor_id;sensor_type;location;lat;lon;timestamp;P1;durP1;ratioP1;P2;durP2;ratioP2
21293;SDS011;10806;52.250;21.066;2022-09-13T00:00:14;19.98;;;7.90;;
21293;SDS011;10806;52.250;21.066;2022-09-13T00:02:39;23.42;;;7.40;;
21293;SDS011;10806;52.250;21.066;2022-09-13T00:05:05;21.98;;;8.02;;
21293;SDS011;10806;52.250;21.066;2022-09-13T00:07:31;18.88;;;7.60;;
21293;SDS011;10806;52.250;21.066;2022-09-13T00:09:57;19.85;;;7.47;;
21293;SDS011;10806;52.250;21.066;2022-09-13T00:12:22;18.85;;;7.95;;
21293;SDS011;10806;52.250;21.066;2022-09-13T00:14:48;21.42;;;8.07;;
21293;SDS011;10806;52.250;21.066;2022-09-13T00:17:14;23.73;;;8.10;;
21293;SDS011;10806;52.250;21.066;2022-09-13T00:19:39;20.48;;;7.68;;
21293;SDS011;10806;52.250;21.066;2022-09-13T00:22:05;18.60;;;8.02;;
21293;SDS011;10806;52.250;21.066;2022-09-13T00:24:31;23.75;;;8.07;;
21293;SDS011;10806;52.250;21.066;2022-09-13T00:26:58;22.77;;;8.57;;
21293;SDS011;10806;52.250;21.066;2022-09-13T00:29:25;22.27;;;8.15;;
21293;SDS011;10806;52.250;21.066;2022-09-13T00:31:50;21.48;;;8.07;;
21293;SDS011;10806;52.250;21.066;2022-09-13T00:34:16;20.83;;;8.23;;
21293;SDS011;10806;52.250;21.066;2022-09-13T00:36:42;20.55;;;8.10;;
21293;SDS011;10806;52.250;21.066;2022-09-13T00:39:08;19.30;;;8.25;;
21293;SDS011;10806;52.250;21.066;2022-09-13T00:41:34;21.70;;;8.23;;
21293;SDS011;10806;52.250;21.066;2022-09-13T00:44:00;16.20;;;7.90;;
21293;SDS011;10806;52.250;21.066;2022-09-13T00:46:37;19.58;;;7.78;;
21293;SDS011;10806;52.250;21.066;2022-09-13T00:49:13;17.33;;;8.50;;
21293;SDS011;10806;52.250;21.066;2022-09-13T00:51:44;21.10;;;8.57;;
21293;SDS011;10806;52.250;21.066;2022-09-13T00:54:14;23.58;;;9.10;;
21293;SDS011;10806;52.250;21.066;2022-09-13T00:56:45;18.98;;;8.85;;
21293;SDS011;10806;52.250;21.066;2022-09-13T00:59:16;16.95;;;8.25;;
21293;SDS011;10806;52.250;21.066;2022-09-13T01:01:48;17.63;;;8.25;;
21293;SDS011;10806;52.250;21.066;2022-09-13T01:04:19;17.08;;;8.40;;
21293;SDS011;10806;52.250;21.066;2022-09-13T01:06:46;15.45;;;7.95;;
21293;SDS011;10806;52.250;21.066;2022-09-13T01:09:14;23.13;;;8.60;;
21293;SDS011;10806;52.250;21.066;2022-09-13T01:11:45;18.52;;;8.25;;
21293;SDS011;10806;52.250;21.066;2022-09-13T01:14:14;22.10;;;9.07;;
21293;SDS011;10806;52.250;21.066;2022-09-13T01:16:42;21.83;;;8.52;;
21293;SDS011;10806;52.250;21.066;2022-09-13T01:19:07;14.55;;;7.68;;
21293;SDS011;10806;52.250;21.066;2022-09-13T01:38:39;17.08;;;7.97;;
21293;SDS011;10806;52.250;21.066;2022-09-13T01:50:24;15.38;;;7.40;;
21293;SDS011;10806;52.250;21.066;2022-09-13T02:01:17;18.77;;;7.60;;
21293;SDS011;10806;52.250;21.066;2022-09-13T02:03:52;16.20;;;8.55;;
21293;SDS011;10806;52.250;21.066;2022-09-13T02:06:31;21.48;;;7.68;;
21293;SDS011;10806;52.250;21.066;2022-09-13T02:09:02;16.50;;;7.82;;
21293;SDS011;10806;52.250;21.066;2022-09-13T02:11:33;17.67;;;8.38;;
21293;SDS011;10806;52.250;21.066;2022-09-13T02:14:06;14.90;;;8.30;;
21293;SDS011;10806;52.250;21.066;2022-09-13T02:16:44;12.98;;;8.20;;
21293;SDS011;10806;52.250;21.066;2022-09-13T02:19:31;14.65;;;8.15;;
21293;SDS011;10806;52.250;21.066;2022-09-13T02:22:19;15.38;;;8.18;;
21293;SDS011;10806;52.250;21.066;2022-09-13T02:24:50;20.38;;;7.93;;
21293;SDS011;10806;52.250;21.066;2022-09-13T02:27:22;14.88;;;8.13;;
21293;SDS011;10806;52.250;21.066;2022-09-13T02:29:51;14.90;;;8.20;;
21293;SDS011;10806;52.250;21.066;2022-09-13T02:32:28;13.57;;;7.93;;
21293;SDS011;10806;52.250;21.066;2022-09-13T02:35:04;18.60;;;8.18;;
21293;SDS011;10806;52.250;21.066;2022-09-13T02:37:34;13.93;;;8.73;;
21293;SDS011;10806;52.250;21.066;2022-09-13T02:40:04;14.80;;;8.60;;
21293;SDS011;10806;52.250;21.066;2022-09-13T02:42:35;14.30;;;8.30;;
21293;SDS011;10806;52.250;21.066;2022-09-13T02:45:07;13.52;;;7.80;;
21293;SDS011;10806;52.250;21.066;2022-09-13T02:55:50;11.90;;;7.75;;
21293;SDS011;10806;52.250;21.066;2022-09-13T02:58:46;28.13;;;8.88;;
21293;SDS011;10806;52.250;21.066;2022-09-13T03:01:36;13.02;;;7.85;;
21293;SDS011;10806;52.250;21.066;2022-09-13T03:04:03;14.70;;;8.25;;
21293;SDS011;10806;52.250;21.066;2022-09-13T03:06:29;14.25;;;7.82;;
21293;SDS011;10806;52.250;21.066;2022-09-13T03:08:55;12.65;;;7.38;;
21293;SDS011;10806;52.250;21.066;2022-09-13T03:11:26;23.65;;;8.73;;
21293;SDS011;10806;52.250;21.066;2022-09-13T03:14:45;14.75;;;8.15;;
21293;SDS011;10806;52.250;21.066;2022-09-13T03:25:11;16.08;;;8.15;;
21293;SDS011;10806;52.250;21.066;2022-09-13T03:30:48;16.20;;;7.72;;
21293;SDS011;10806;52.250;21.066;2022-09-13T03:35:53;11.77;;;7.57;;
21293;SDS011;10806;52.250;21.066;2022-09-13T03:38:36;14.77;;;7.70;;
21293;SDS011;10806;52.250;21.066;2022-09-13T03:41:11;13.35;;;8.13;;
21293;SDS011;10806;52.250;21.066;2022-09-13T03:43:43;10.70;;;7.50;;
21293;SDS011;10806;52.250;21.066;2022-09-13T03:46:14;15.60;;;8.00;;
21293;SDS011;10806;52.250;21.066;2022-09-13T03:49:09;16.67;;;8.15;;
21293;SDS011;10806;52.250;21.066;2022-09-13T03:51:42;13.40;;;7.65;;
21293;SDS011;10806;52.250;21.066;2022-09-13T03:54:13;15.43;;;7.75;;
21293;SDS011;10806;52.250;21.066;2022-09-13T03:59:36;15.00;;;8.32;;
21293;SDS011;10806;52.250;21.066;2022-09-13T04:02:04;22.65;;;8.10;;
21293;SDS011;10806;52.250;21.066;2022-09-13T04:04:34;16.77;;;7.97;;
21293;SDS011;10806;52.250;21.066;2022-09-13T04:06:59;12.95;;;7.35;;
21293;SDS011;10806;52.250;21.066;2022-09-13T04:09:25;11.38;;;7.55;;
21293;SDS011;10806;52.250;21.066;2022-09-13T04:11:51;14.00;;;7.90;;
21293;SDS011;10806;52.250;21.066;2022-09-13T04:14:16;11.75;;;7.95;;
21293;SDS011;10806;52.250;21.066;2022-09-13T04:16:42;12.32;;;8.27;;
21293;SDS011;10806;52.250;21.066;2022-09-13T04:19:07;14.52;;;7.65;;
21293;SDS011;10806;52.250;21.066;2022-09-13T04:21:34;13.52;;;7.93;;
21293;SDS011;10806;52.250;21.066;2022-09-13T04:24:00;11.77;;;8.13;;
21293;SDS011;10806;52.250;21.066;2022-09-13T04:26:25;13.88;;;7.90;;
21293;SDS011;10806;52.250;21.066;2022-09-13T04:28:51;14.10;;;8.07;;
21293;SDS011;10806;52.250;21.066;2022-09-13T04:31:17;16.50;;;7.78;;
21293;SDS011;10806;52.250;21.066;2022-09-13T04:33:43;20.60;;;8.88;;
21293;SDS011;10806;52.250;21.066;2022-09-13T04:36:08;12.70;;;8.38;;
21293;SDS011;10806;52.250;21.066;2022-09-13T04:38:34;12.45;;;7.72;;
21293;SDS011;10806;52.250;21.066;2022-09-13T04:41:00;11.77;;;8.07;;
21293;SDS011;10806;52.250;21.066;2022-09-13T04:43:26;11.63;;;7.45;;
21293;SDS011;10806;52.250;21.066;2022-09-13T04:45:51;10.00;;;7.28;;
21293;SDS011;10806;52.250;21.066;2022-09-13T04:48:17;9.45;;;7.30;;
21293;SDS011;10806;52.250;21.066;2022-09-13T04:50:43;14.13;;;7.38;;
21293;SDS011;10806;52.250;21.066;2022-09-13T04:53:09;11.95;;;7.18;;
21293;SDS011;10806;52.250;21.066;2022-09-13T04:55:34;15.85;;;8.20;;
21293;SDS011;10806;52.250;21.066;2022-09-13T04:58:00;10.30;;;7.45;;
21293;SDS011;10806;52.250;21.066;2022-09-13T05:00:27;12.50;;;8.25;;
21293;SDS011;10806;52.250;21.066;2022-09-13T05:02:55;14.75;;;7.68;;
21293;SDS011;10806;52.250;21.066;2022-09-13T05:05:21;9.55;;;7.72;;
21293;SDS011;10806;52.250;21.066;2022-09-13T05:07:49;9.68;;;7.43;;
21293;SDS011;10806;52.250;21.066;2022-09-13T05:10:16;11.88;;;7.88;;
21293;SDS011;10806;52.250;21.066;2022-09-13T05:12:41;13.98;;;8.30;;
21293;SDS011;10806;52.250;21.066;2022-09-13T05:15:07;14.07;;;8.05;;
21293;SDS011;10806;52.250;21.066;2022-09-13T05:17:33;10.63;;;7.10;;
21293;SDS011;10806;52.250;21.066;2022-09-13T05:19:59;13.60;;;7.50;;
21293;SDS011;10806;52.250;21.066;2022-09-13T05:22:24;11.45;;;7.47;;
21293;SDS011;10806;52.250;21.066;2022-09-13T05:24:50;9.75;;;7.07;;
21293;SDS011;10806;52.250;21.066;2022-09-13T05:27:15;12.38;;;7.45;;
21293;SDS011;10806;52.250;21.066;2022-09-13T05:29:41;14.90;;;7.60;;
21293;SDS011;10806;52.250;21.066;2022-09-13T05:32:06;11.80;;;7.35;;
21293;SDS011;10806;52.250;21.066;2022-09-13T05:34:32;12.63;;;7.47;;
21293;SDS011;10806;52.250;21.066;2022-09-13T05:36:58;10.43;;;7.65;;
21293;SDS011;10806;52.250;21.066;2022-09-13T05:39:23;13.23;;;7.22;;
21293;SDS011;10806;52.250;21.066;2022-09-13T05:41:49;11.73;;;7.55;;
21293;SDS011;10806;52.250;21.066;2022-09-13T05:44:14;16.85;;;7.80;;
21293;SDS011;10806;52.250;21.066;2022-09-13T05:46:40;12.55;;;7.57;;
21293;SDS011;10806;52.250;21.066;2022-09-13T05:49:07;11.80;;;6.75;;
21293;SDS011;10806;52.250;21.066;2022-09-13T05:51:32;12.10;;;7.40;;
21293;SDS011;10806;52.250;21.066;2022-09-13T05:53:58;10.95;;;7.00;;
21293;SDS011;10806;52.250;21.066;2022-09-13T05:56:25;11.27;;;7.30;;
21293;SDS011;10806;52.250;21.066;2022-09-13T05:58:52;11.10;;;7.65;;
21293;SDS011;10806;52.250;21.066;2022-09-13T06:01:19;10.25;;;6.93;;
21293;SDS011;10806;52.250;21.066;2022-09-13T06:03:47;8.43;;;7.15;;
21293;SDS011;10806;52.250;21.066;2022-09-13T06:06:14;8.60;;;7.43;;
21293;SDS011;10806;52.250;21.066;2022-09-13T06:08:40;11.38;;;7.40;;
21293;SDS011;10806;52.250;21.066;2022-09-13T06:11:06;15.55;;;6.88;;
21293;SDS011;10806;52.250;21.066;2022-09-13T06:13:34;17.17;;;7.95;;
21293;SDS011;10806;52.250;21.066;2022-09-13T06:16:01;11.30;;;6.95;;
21293;SDS011;10806;52.250;21.066;2022-09-13T06:18:28;10.80;;;7.20;;
21293;SDS011;10806;52.250;21.066;2022-09-13T06:20:57;14.35;;;7.60;;
21293;SDS011;10806;52.250;21.066;2022-09-13T06:23:24;14.02;;;7.28;;
21293;SDS011;10806;52.250;21.066;2022-09-13T06:25:57;14.38;;;7.68;;
21293;SDS011;10806;52.250;21.066;2022-09-13T06:28:27;12.13;;;7.75;;
21293;SDS011;10806;52.250;21.066;2022-09-13T06:31:00;11.07;;;7.45;;
21293;SDS011;10806;52.250;21.066;2022-09-13T06:33:27;21.08;;;7.70;;
21293;SDS011;10806;52.250;21.066;2022-09-13T06:35:53;19.38;;;7.88;;
21293;SDS011;10806;52.250;21.066;2022-09-13T06:38:18;14.30;;;7.30;;
21293;SDS011;10806;52.250;21.066;2022-09-13T06:40:44;25.75;;;8.38;;
21293;SDS011;10806;52.250;21.066;2022-09-13T06:43:10;32.20;;;7.60;;
21293;SDS011;10806;52.250;21.066;2022-09-13T06:45:35;22.95;;;7.47;;
21293;SDS011;10806;52.250;21.066;2022-09-13T06:48:01;12.88;;;7.53;;
21293;SDS011;10806;52.250;21.066;2022-09-13T06:50:27;21.65;;;7.45;;
21293;SDS011;10806;52.250;21.066;2022-09-13T06:52:55;23.50;;;7.40;;
21293;SDS011;10806;52.250;21.066;2022-09-13T06:55:21;16.85;;;7.38;;
21293;SDS011;10806;52.250;21.066;2022-09-13T06:57:47;17.77;;;7.53;;
21293;SDS011;10806;52.250;21.066;2022-09-13T07:00:12;17.38;;;7.38;;
21293;SDS011;10806;52.250;21.066;2022-09-13T07:02:38;23.17;;;7.82;;
21293;SDS011;10806;52.250;21.066;2022-09-13T07:05:04;16.33;;;7.82;;
21293;SDS011;10806;52.250;21.066;2022-09-13T07:07:30;13.77;;;7.03;;
21293;SDS011;10806;52.250;21.066;2022-09-13T07:09:56;14.60;;;7.30;;
21293;SDS011;10806;52.250;21.066;2022-09-13T07:12:21;21.55;;;7.15;;
21293;SDS011;10806;52.250;21.066;2022-09-13T07:14:47;15.00;;;6.65;;
21293;SDS011;10806;52.250;21.066;2022-09-13T07:17:12;15.35;;;7.18;;
21293;SDS011;10806;52.250;21.066;2022-09-13T07:19:39;38.63;;;8.10;;
21293;SDS011;10806;52.250;21.066;2022-09-13T07:22:04;18.75;;;7.13;;
21293;SDS011;10806;52.250;21.066;2022-09-13T07:24:30;16.23;;;7.18;;
21293;SDS011;10806;52.250;21.066;2022-09-13T07:26:56;20.70;;;7.78;;
21293;SDS011;10806;52.250;21.066;2022-09-13T07:29:21;15.82;;;7.57;;
21293;SDS011;10806;52.250;21.066;2022-09-13T07:31:49;18.48;;;7.38;;
21293;SDS011;10806;52.250;21.066;2022-09-13T07:34:18;38.22;;;8.02;;
21293;SDS011;10806;52.250;21.066;2022-09-13T07:36:45;15.60;;;7.05;;
21293;SDS011;10806;52.250;21.066;2022-09-13T07:39:12;16.17;;;6.70;;
21293;SDS011;10806;52.250;21.066;2022-09-13T07:41:38;20.70;;;7.40;;
21293;SDS011;10806;52.250;21.066;2022-09-13T07:44:04;16.45;;;7.85;;
21293;SDS011;10806;52.250;21.066;2022-09-13T07:46:30;21.40;;;7.50;;
21293;SDS011;10806;52.250;21.066;2022-09-13T07:48:57;19.80;;;7.47;;
21293;SDS011;10806;52.250;21.066;2022-09-13T07:51:28;16.60;;;6.80;;
21293;SDS011;10806;52.250;21.066;2022-09-13T07:53:56;18.92;;;7.00;;
21293;SDS011;10806;52.250;21.066;2022-09-13T07:56:24;14.90;;;7.47;;
21293;SDS011;10806;52.250;21.066;2022-09-13T07:58:52;13.52;;;7.68;;
21293;SDS011;10806;52.250;21.066;2022-09-13T08:01:22;13.88;;;7.47;;
21293;SDS011;10806;52.250;21.066;2022-09-13T08:04:05;20.85;;;7.10;;
21293;SDS011;10806;52.250;21.066;2022-09-13T08:06:33;15.50;;;7.13;;
21293;SDS011;10806;52.250;21.066;2022-09-13T08:09:00;12.52;;;7.38;;
21293;SDS011;10806;52.250;21.066;2022-09-13T08:11:29;15.85;;;7.15;;
21293;SDS011;10806;52.250;21.066;2022-09-13T08:13:56;13.82;;;7.40;;
21293;SDS011;10806;52.250;21.066;2022-09-13T08:16:23;10.98;;;7.40;;
21293;SDS011;10806;52.250;21.066;2022-09-13T08:18:50;12.30;;;7.30;;
21293;SDS011;10806;52.250;21.066;2022-09-13T08:21:18;17.02;;;7.30;;
21293;SDS011;10806;52.250;21.066;2022-09-13T08:23:44;15.48;;;7.20;;
21293;SDS011;10806;52.250;21.066;2022-09-13T08:26:10;12.18;;;7.25;;
21293;SDS011;10806;52.250;21.066;2022-09-13T08:28:37;15.15;;;7.30;;
21293;SDS011;10806;52.250;21.066;2022-09-13T08:31:14;13.63;;;7.13;;
21293;SDS011;10806;52.250;21.066;2022-09-13T08:33:44;8.50;;;6.10;;
21293;SDS011;10806;52.250;21.066;2022-09-13T08:36:12;17.10;;;6.90;;
21293;SDS011;10806;52.250;21.066;2022-09-13T08:38:39;13.10;;;7.10;;
21293;SDS011;10806;52.250;21.066;2022-09-13T08:44:03;15.18;;;7.28;;
21293;SDS011;10806;52.250;21.066;2022-09-13T08:46:42;14.48;;;6.95;;
21293;SDS011;10806;52.250;21.066;2022-09-13T08:49:11;11.27;;;6.47;;
21293;SDS011;10806;52.250;21.066;2022-09-13T08:54:18;27.58;;;7.47;;
21293;SDS011;10806;52.250;21.066;2022-09-13T08:56:47;21.88;;;7.65;;
21293;SDS011;10806;52.250;21.066;2022-09-13T08:59:32;24.65;;;7.45;;
21293;SDS011;10806;52.250;21.066;2022-09-13T09:05:08;23.10;;;7.35;;
21293;SDS011;10806;52.250;21.066;2022-09-13T09:08:03;15.90;;;7.57;;
21293;SDS011;10806;52.250;21.066;2022-09-13T09:10:36;26.15;;;6.93;;
21293;SDS011;10806;52.250;21.066;2022-09-13T09:15:55;14.13;;;7.07;;
21293;SDS011;10806;52.250;21.066;2022-09-13T09:18:32;21.00;;;6.65;;
21293;SDS011;10806;52.250;21.066;2022-09-13T09:21:05;13.43;;;6.68;;
21293;SDS011;10806;52.250;21.066;2022-09-13T09:23:36;19.67;;;7.25;;
21293;SDS011;10806;52.250;21.066;2022-09-13T09:26:15;16.75;;;6.88;;
21293;SDS011;10806;52.250;21.066;2022-09-13T09:28:48;17.20;;;6.97;;
21293;SDS011;10806;52.250;21.066;2022-09-13T09:31:25;17.20;;;6.97;;
21293;SDS011;10806;52.250;21.066;2022-09-13T09:36:40;19.52;;;6.70;;
21293;SDS011;10806;52.250;21.066;2022-09-13T09:39:12;17.15;;;6.55;;
21293;SDS011;10806;52.250;21.066;2022-09-13T09:41:40;16.30;;;6.80;;
21293;SDS011;10806;52.250;21.066;2022-09-13T09:44:18;18.90;;;6.50;;
21293;SDS011;10806;52.250;21.066;2022-09-13T09:46:58;16.02;;;6.32;;
21293;SDS011;10806;52.250;21.066;2022-09-13T09:49:40;12.15;;;6.18;;
21293;SDS011;10806;52.250;21.066;2022-09-13T09:52:32;16.45;;;6.05;;
21293;SDS011;10806;52.250;21.066;2022-09-13T09:58:05;11.13;;;6.28;;
21293;SDS011;10806;52.250;21.066;2022-09-13T10:00:33;11.98;;;5.72;;
21293;SDS011;10806;52.250;21.066;2022-09-13T10:03:01;12.43;;;6.50;;
21293;SDS011;10806;52.250;21.066;2022-09-13T10:05:38;16.23;;;6.97;;
21293;SDS011;10806;52.250;21.066;2022-09-13T10:08:05;17.52;;;6.78;;
21293;SDS011;10806;52.250;21.066;2022-09-13T10:10:39;17.23;;;6.50;;
21293;SDS011;10806;52.250;21.066;2022-09-13T10:13:11;15.95;;;5.97;;
21293;SDS011;10806;52.250;21.066;2022-09-13T10:15:56;22.55;;;6.72;;
21293;SDS011;10806;52.250;21.066;2022-09-13T10:18:30;27.45;;;8.70;;
21293;SDS011;10806;52.250;21.066;2022-09-13T10:23:25;16.58;;;8.27;;
21293;SDS011;10806;52.250;21.066;2022-09-13T10:28:42;12.80;;;7.47;;
21293;SDS011;10806;52.250;21.066;2022-09-13T10:31:12;14.13;;;7.47;;
21293;SDS011;10806;52.250;21.066;2022-09-13T10:33:41;21.45;;;7.55;;
21293;SDS011;10806;52.250;21.066;2022-09-13T10:36:15;18.58;;;7.50;;
21293;SDS011;10806;52.250;21.066;2022-09-13T10:41:31;23.73;;;6.93;;
21293;SDS011;10806;52.250;21.066;2022-09-13T10:44:00;18.02;;;6.72;;
21293;SDS011;10806;52.250;21.066;2022-09-13T10:46:29;15.48;;;7.65;;
21293;SDS011;10806;52.250;21.066;2022-09-13T10:48:56;26.77;;;7.32;;
21293;SDS011;10806;52.250;21.066;2022-09-13T10:56:39;27.92;;;7.55;;
21293;SDS011;10806;52.250;21.066;2022-09-13T11:05:00;25.67;;;7.07;;
21293;SDS011;10806;52.250;21.066;2022-09-13T11:10:47;13.57;;;6.45;;
21293;SDS011;10806;52.250;21.066;2022-09-13T11:22:21;24.42;;;6.57;;
21293;SDS011;10806;52.250;21.066;2022-09-13T11:27:46;28.88;;;6.38;;
21293;SDS011;10806;52.250;21.066;2022-09-13T11:30:17;20.60;;;6.68;;
21293;SDS011;10806;52.250;21.066;2022-09-13T11:35:47;20.33;;;6.07;;
21293;SDS011;10806;52.250;21.066;2022-09-13T11:41:12;25.02;;;7.07;;
21293;SDS011;10806;52.250;21.066;2022-09-13T11:43:57;20.20;;;6.65;;
21293;SDS011;10806;52.250;21.066;2022-09-13T11:50:03;23.75;;;6.65;;
21293;SDS011;10806;52.250;21.066;2022-09-13T11:52:49;24.52;;;6.68;;
21293;SDS011;10806;52.250;21.066;2022-09-13T11:55:27;20.75;;;6.32;;
21293;SDS011;10806;52.250;21.066;2022-09-13T11:57:58;28.83;;;6.18;;
21293;SDS011;10806;52.250;21.066;2022-09-13T12:00:39;17.55;;;6.43;;
21293;SDS011;10806;52.250;21.066;2022-09-13T12:05:45;23.17;;;5.85;;
21293;SDS011;10806;52.250;21.066;2022-09-13T12:08:58;17.35;;;5.63;;
21293;SDS011;10806;52.250;21.066;2022-09-13T12:14:00;15.93;;;6.20;;
21293;SDS011;10806;52.250;21.066;2022-09-13T12:16:36;16.75;;;5.78;;
21293;SDS011;10806;52.250;21.066;2022-09-13T12:19:06;21.45;;;5.80;;
21293;SDS011;10806;52.250;21.066;2022-09-13T12:21:40;15.68;;;5.28;;
21293;SDS011;10806;52.250;21.066;2022-09-13T12:26:51;17.95;;;5.50;;
21293;SDS011;10806;52.250;21.066;2022-09-13T12:29:28;12.60;;;5.68;;
21293;SDS011;10806;52.250;21.066;2022-09-13T12:32:09;14.77;;;5.32;;
21293;SDS011;10806;52.250;21.066;2022-09-13T12:34:49;13.68;;;5.13;;
21293;SDS011;10806;52.250;21.066;2022-09-13T12:37:39;16.45;;;5.57;;
21293;SDS011;10806;52.250;21.066;2022-09-13T12:45:37;17.75;;;5.50;;
21293;SDS011;10806;52.250;21.066;2022-09-13T13:02:22;31.25;;;10.80;;
21293;SDS011;10806;52.250;21.066;2022-09-13T13:05:03;37.13;;;16.63;;
21293;SDS011;10806;52.250;21.066;2022-09-13T13:07:39;35.33;;;17.95;;
21293;SDS011;10806;52.250;21.066;2022-09-13T13:10:20;50.83;;;20.92;;
21293;SDS011;10806;52.250;21.066;2022-09-13T13:13:11;43.60;;;19.95;;
21293;SDS011;10806;52.250;21.066;2022-09-13T13:18:26;46.22;;;19.52;;
21293;SDS011;10806;52.250;21.066;2022-09-13T13:23:25;49.20;;;19.70;;
21293;SDS011;10806;52.250;21.066;2022-09-13T13:28:51;52.70;;;17.55;;
21293;SDS011;10806;52.250;21.066;2022-09-13T13:39:08;39.00;;;17.80;;
21293;SDS011;10806;52.250;21.066;2022-09-13T14:11:14;55.20;;;10.48;;
21293;SDS011;10806;52.250;21.066;2022-09-13T14:24:36;29.95;;;11.45;;
21293;SDS011;10806;52.250;21.066;2022-09-13T14:27:02;30.02;;;10.90;;
21293;SDS011;10806;52.250;21.066;2022-09-13T14:29:28;38.08;;;10.95;;
21293;SDS011;10806;52.250;21.066;2022-09-13T14:32:00;33.40;;;10.63;;
21293;SDS011;10806;52.250;21.066;2022-09-13T14:34:29;27.08;;;11.15;;
21293;SDS011;10806;52.250;21.066;2022-09-13T14:36:59;42.58;;;11.23;;
21293;SDS011;10806;52.250;21.066;2022-09-13T14:39:28;24.83;;;9.65;;
21293;SDS011;10806;52.250;21.066;2022-09-13T14:44:42;29.90;;;9.57;;
21293;SDS011;10806;52.250;21.066;2022-09-13T14:49:44;49.42;;;10.85;;
21293;SDS011;10806;52.250;21.066;2022-09-13T14:52:23;54.22;;;11.40;;
21293;SDS011;10806;52.250;21.066;2022-09-13T14:54:53;70.55;;;12.02;;
21293;SDS011;10806;52.250;21.066;2022-09-13T14:57:29;47.70;;;11.18;;
21293;SDS011;10806;52.250;21.066;2022-09-13T15:00:33;48.67;;;11.20;;
21293;SDS011;10806;52.250;21.066;2022-09-13T15:02:54;54.80;;;12.52;;
21293;SDS011;10806;52.250;21.066;2022-09-13T15:05:24;42.80;;;12.05;;
21293;SDS011;10806;52.250;21.066;2022-09-13T15:07:53;41.13;;;11.63;;
21293;SDS011;10806;52.250;21.066;2022-09-13T15:10:31;48.47;;;10.77;;
21293;SDS011;10806;52.250;21.066;2022-09-13T15:18:20;50.95;;;10.65;;
21293;SDS011;10806;52.250;21.066;2022-09-13T15:20:52;41.90;;;10.55;;
21293;SDS011;10806;52.250;21.066;2022-09-13T15:23:25;43.03;;;11.15;;
21293;SDS011;10806;52.250;21.066;2022-09-13T15:26:06;38.83;;;10.52;;
21293;SDS011;10806;52.250;21.066;2022-09-13T15:29:04;42.30;;;11.23;;
21293;SDS011;10806;52.250;21.066;2022-09-13T15:31:40;37.40;;;10.30;;
21293;SDS011;10806;52.250;21.066;2022-09-13T15:37:01;37.70;;;9.38;;
21293;SDS011;10806;52.250;21.066;2022-09-13T15:39:27;36.47;;;10.00;;
21293;SDS011;10806;52.250;21.066;2022-09-13T15:41:56;48.67;;;10.80;;
21293;SDS011;10806;52.250;21.066;2022-09-13T15:44:24;28.00;;;9.30;;
21293;SDS011;10806;52.250;21.066;2022-09-13T15:47:00;31.83;;;10.00;;
21293;SDS011;10806;52.250;21.066;2022-09-13T15:49:29;32.85;;;9.70;;
21293;SDS011;10806;52.250;21.066;2022-09-13T15:51:59;32.53;;;10.43;;
21293;SDS011;10806;52.250;21.066;2022-09-13T15:54:30;36.03;;;9.38;;
21293;SDS011;10806;52.250;21.066;2022-09-13T15:56:57;28.98;;;9.10;;
21293;SDS011;10806;52.250;21.066;2022-09-13T15:59:23;32.65;;;9.70;;
21293;SDS011;10806;52.250;21.066;2022-09-13T16:01:50;29.95;;;9.10;;
21293;SDS011;10806;52.250;21.066;2022-09-13T16:04:17;32.80;;;9.65;;
21293;SDS011;10806;52.250;21.066;2022-09-13T16:06:43;36.75;;;9.73;;
21293;SDS011;10806;52.250;21.066;2022-09-13T16:11:44;26.38;;;8.98;;
21293;SDS011;10806;52.250;21.066;2022-09-13T16:14:12;34.60;;;8.82;;
21293;SDS011;10806;52.250;21.066;2022-09-13T16:16:38;27.75;;;8.68;;
21293;SDS011;10806;52.250;21.066;2022-09-13T16:19:04;30.30;;;8.50;;
21293;SDS011;10806;52.250;21.066;2022-09-13T16:21:30;33.33;;;9.52;;
21293;SDS011;10806;52.250;21.066;2022-09-13T16:23:55;32.78;;;9.30;;
21293;SDS011;10806;52.250;21.066;2022-09-13T16:26:21;25.88;;;7.90;;
21293;SDS011;10806;52.250;21.066;2022-09-13T16:28:46;25.52;;;8.50;;
21293;SDS011;10806;52.250;21.066;2022-09-13T16:31:12;24.75;;;8.50;;
21293;SDS011;10806;52.250;21.066;2022-09-13T16:33:41;25.48;;;8.48;;
21293;SDS011;10806;52.250;21.066;2022-09-13T16:36:10;20.70;;;8.23;;
21293;SDS011;10806;52.250;21.066;2022-09-13T16:38:36;33.83;;;7.70;;
21293;SDS011;10806;52.250;21.066;2022-09-13T16:41:05;26.45;;;7.88;;
21293;SDS011;10806;52.250;21.066;2022-09-13T16:43:30;31.20;;;8.48;;
21293;SDS011;10806;52.250;21.066;2022-09-13T16:45:57;28.05;;;9.18;;
21293;SDS011;10806;52.250;21.066;2022-09-13T16:48:23;18.05;;;7.95;;
21293;SDS011;10806;52.250;21.066;2022-09-13T16:50:48;21.85;;;8.65;;
21293;SDS011;10806;52.250;21.066;2022-09-13T16:53:14;21.77;;;7.78;;
21293;SDS011;10806;52.250;21.066;2022-09-13T16:55:40;21.58;;;7.85;;
21293;SDS011;10806;52.250;21.066;2022-09-13T16:58:06;24.23;;;8.20;;
21293;SDS011;10806;52.250;21.066;2022-09-13T17:00:32;25.25;;;8.55;;
21293;SDS011;10806;52.250;21.066;2022-09-13T17:02:58;17.23;;;6.65;;
21293;SDS011;10806;52.250;21.066;2022-09-13T17:05:24;19.73;;;7.95;;
21293;SDS011;10806;52.250;21.066;2022-09-13T17:07:50;18.75;;;7.57;;
21293;SDS011;10806;52.250;21.066;2022-09-13T17:10:17;16.35;;;7.35;;
21293;SDS011;10806;52.250;21.066;2022-09-13T17:12:43;22.50;;;7.85;;
21293;SDS011;10806;52.250;21.066;2022-09-13T17:15:09;16.48;;;7.55;;
21293;SDS011;10806;52.250;21.066;2022-09-13T17:17:35;19.75;;;7.07;;
21293;SDS011;10806;52.250;21.066;2022-09-13T17:20:03;21.50;;;7.20;;
21293;SDS011;10806;52.250;21.066;2022-09-13T17:22:32;18.73;;;7.55;;
21293;SDS011;10806;52.250;21.066;2022-09-13T17:24:58;18.92;;;7.90;;
21293;SDS011;10806;52.250;21.066;2022-09-13T17:27:25;19.25;;;7.90;;
21293;SDS011;10806;52.250;21.066;2022-09-13T17:29:51;19.10;;;7.28;;
21293;SDS011;10806;52.250;21.066;2022-09-13T17:32:17;17.85;;;6.55;;
21293;SDS011;10806;52.250;21.066;2022-09-13T17:34:43;17.83;;;7.30;;
21293;SDS011;10806;52.250;21.066;2022-09-13T17:37:09;17.17;;;7.20;;
21293;SDS011;10806;52.250;21.066;2022-09-13T17:39:35;19.33;;;7.05;;
21293;SDS011;10806;52.250;21.066;2022-09-13T17:42:00;13.45;;;6.35;;
21293;SDS011;10806;52.250;21.066;2022-09-13T17:44:26;15.98;;;7.07;;
21293;SDS011;10806;52.250;21.066;2022-09-13T17:46:52;17.05;;;7.28;;
21293;SDS011;10806;52.250;21.066;2022-09-13T17:49:17;14.82;;;6.85;;
21293;SDS011;10806;52.250;21.066;2022-09-13T17:51:43;17.77;;;6.97;;
21293;SDS011;10806;52.250;21.066;2022-09-13T17:54:09;19.60;;;7.18;;
21293;SDS011;10806;52.250;21.066;2022-09-13T17:56:36;24.27;;;7.53;;
21293;SDS011;10806;52.250;21.066;2022-09-13T17:59:16;25.80;;;6.93;;
21293;SDS011;10806;52.250;21.066;2022-09-13T18:01:44;22.27;;;7.38;;
21293;SDS011;10806;52.250;21.066;2022-09-13T18:04:12;20.67;;;6.63;;
21293;SDS011;10806;52.250;21.066;2022-09-13T18:06:39;22.23;;;6.60;;
21293;SDS011;10806;52.250;21.066;2022-09-13T18:09:06;36.58;;;7.63;;
21293;SDS011;10806;52.250;21.066;2022-09-13T18:11:33;27.48;;;7.72;;
21293;SDS011;10806;52.250;21.066;2022-09-13T18:13:59;21.88;;;7.90;;
21293;SDS011;10806;52.250;21.066;2022-09-13T18:16:26;23.63;;;6.38;;